Mugan — 9HA2962 — position and weather

sailwx.info

Track history (hours):
 
Tides and Currents Weather Stations Pressure Air Temp Water Temp Dewpoint Dewpoint Depression Visibility Wind Speed Wind Dir Waves Ship Positions

Mugan

Last reported at 2017-May-28 07:34 UTC. Time now 2017-May-28 08:42 UTC.
Position N 37°39' E 009°42'.

Length 140 m; draft 4.6 m.

Type: Ship (hazmat cat B). MMSI: 256914000.

Date/timePositionNaut miles runAvg speedWind from/ knotsBaromVisibWave heightAir tempDewpointWater temp
2017-May-28 07:34N 37°39' E 009°42'1 9.4
2017-May-28 07:26N 37°39' E 009°43'4 9.5
2017-May-28 07:00N 37°39' E 009°49'5 9.8
2017-May-28 06:30N 37°39' E 009°55'6 9.7
2017-May-28 05:53N 37°39' E 010°02'68 9.4
2017-May-27 22:37N 37°22' E 011°26'1 9.9
2017-May-27 22:30N 37°22' E 011°27'59 9.5
2017-May-27 16:17N 36°58' E 012°35'2 8.4
2017-May-27 16:00N 36°57' E 012°38'19 9.0
2017-May-27 13:57N 36°50' E 012°59'4 8.9
2017-May-27 13:30N 36°48' E 013°03'5 8.8
2017-May-27 12:59N 36°46' E 013°09'4 9.1
2017-May-27 12:30N 36°44' E 013°14'5 9.3
2017-May-27 12:00N 36°42' E 013°19'5 9.3
2017-May-27 11:30N 36°41' E 013°24'5 9.4
2017-May-27 11:00N 36°39' E 013°29'5 9.3
2017-May-27 10:30N 36°37' E 013°35'5 9.6
2017-May-27 10:00N 36°35' E 013°40'5 9.7
2017-May-27 09:30N 36°33' E 013°46'6 9.7
2017-May-27 08:55N 36°31' E 013°52'6 9.7
2017-May-27 08:21N 36°29' E 013°59'4 9.7
2017-May-27 07:59N 36°28' E 014°03'5 9.7
2017-May-27 07:30N 36°26' E 014°08'5 9.7
2017-May-27 07:00N 36°24' E 014°14'5 9.7
2017-May-27 06:30N 36°22' E 014°19'5 9.6
2017-May-27 06:00N 36°20' E 014°25'5 9.7
2017-May-27 05:30N 36°20' E 014°31'6 9.7
2017-May-27 04:52N 36°19' E 014°39'  
2017-May-24 08:11N 39°46' E 025°46'3 9.7
2017-May-24 07:54N 39°48' E 025°47'5 9.9
2017-May-24 07:23N 39°53' E 025°50'  
2017-May-20 12:41N 46°20' E 030°55'2 9.7
2017-May-20 12:28N 46°22' E 030°55'8 9.8
2017-May-20 11:41N 46°29' E 030°55'31 7.9
2017-May-20 07:45N 46°36' E 031°40'3 9.9
2017-May-20 07:28N 46°36' E 031°44'5 9.9
2017-May-20 07:00N 46°36' E 031°50'5 9.6
2017-May-20 06:31N 46°39' E 031°56'5 9.6
2017-May-20 06:01N 46°44' E 031°55'4 8.9
2017-May-20 05:31N 46°48' E 031°54'510.5
2017-May-20 05:01N 46°52' E 031°59'4 8.6
2017-May-20 04:31N 46°56' E 032°00'0 0.8
2017-May-20 03:59N 46°57' E 031°60'0 0.0
2017-May-20 03:29N 46°57' E 031°60'0 0.0
2017-May-20 02:59N 46°57' E 031°60'0 0.0
2017-May-20 02:29N 46°57' E 031°60'0 0.0
2017-May-20 01:59N 46°57' E 031°60'0 0.0
2017-May-20 01:29N 46°57' E 031°60'0 0.0
2017-May-20 00:59N 46°57' E 031°60'0 0.0
2017-May-20 00:29N 46°57' E 031°60'0 0.0
2017-May-19 23:59N 46°57' E 031°60'0 0.0
2017-May-19 23:29N 46°57' E 031°60'0 0.0
2017-May-19 22:59N 46°57' E 031°60'0 0.0
2017-May-19 22:29N 46°57' E 031°60'0 0.0
2017-May-19 21:59N 46°57' E 031°60'0 0.0
2017-May-19 21:29N 46°57' E 031°60'0 0.0
2017-May-19 20:59N 46°57' E 031°60'0 0.0
2017-May-19 20:29N 46°57' E 031°60'0 0.0
2017-May-19 19:59N 46°57' E 031°60'0 0.0
2017-May-19 19:29N 46°57' E 031°60'0 0.0
2017-May-19 18:59N 46°57' E 031°60'0 0.0
2017-May-19 18:29N 46°57' E 031°60'0 0.0
2017-May-19 17:59N 46°57' E 031°60'0 0.0
2017-May-19 17:29N 46°57' E 031°60'0 0.0
2017-May-19 16:59N 46°57' E 031°60'0 0.0
2017-May-19 16:29N 46°57' E 031°60'0 0.0
2017-May-19 15:59N 46°57' E 031°60'0 0.0
2017-May-19 15:29N 46°57' E 031°60'0 0.0
2017-May-19 14:59N 46°57' E 031°60'0 0.0
2017-May-19 13:59N 46°57' E 031°60'0 0.0
2017-May-19 13:29N 46°57' E 031°60'0 0.0
2017-May-19 12:50N 46°57' E 031°60'0 0.0
2017-May-19 12:29N 46°57' E 031°60'0 0.0
2017-May-19 11:59N 46°57' E 031°60'0 0.0
2017-May-19 11:29N 46°57' E 031°60'0 0.0
2017-May-19 10:59N 46°57' E 031°60'0 0.0
2017-May-19 10:29N 46°57' E 031°60'0 0.0
2017-May-19 09:59N 46°57' E 031°60'0 0.0
2017-May-19 09:29N 46°57' E 031°60'0 0.0
2017-May-19 08:59N 46°57' E 031°60'0 0.0
2017-May-19 08:29N 46°57' E 031°60'0 0.0
2017-May-19 07:59N 46°57' E 031°60'0 0.0
2017-May-19 07:29N 46°57' E 031°60'51 5.9
2017-May-18 22:49N 46°29' E 030°57'  
Track history (hours):
 
Tides and Currents Weather Stations Pressure Air Temp Water Temp Dewpoint Dewpoint Depression Visibility Wind Speed Wind Dir Waves Ship Positions

Mugan

Last reported at 2017-May-28 07:34 UTC. Time now 2017-May-28 08:42 UTC.
Position N 37°39' E 009°42'.

Length 140 m; draft 4.6 m.

Type: Ship (hazmat cat B). MMSI: 256914000.

Date/timePositionNaut miles runAvg speedWind from/ knotsBaromVisibWave heightAir tempDewpointWater temp
2017-May-28 07:34N 37°39' E 009°42'1 9.4
2017-May-28 07:26N 37°39' E 009°43'4 9.5
2017-May-28 07:00N 37°39' E 009°49'5 9.8
2017-May-28 06:30N 37°39' E 009°55'6 9.7
2017-May-28 05:53N 37°39' E 010°02'68 9.4
2017-May-27 22:37N 37°22' E 011°26'1 9.9
2017-May-27 22:30N 37°22' E 011°27'59 9.5
2017-May-27 16:17N 36°58' E 012°35'2 8.4
2017-May-27 16:00N 36°57' E 012°38'19 9.0
2017-May-27 13:57N 36°50' E 012°59'4 8.9
2017-May-27 13:30N 36°48' E 013°03'5 8.8
2017-May-27 12:59N 36°46' E 013°09'4 9.1
2017-May-27 12:30N 36°44' E 013°14'5 9.3
2017-May-27 12:00N 36°42' E 013°19'5 9.3
2017-May-27 11:30N 36°41' E 013°24'5 9.4
2017-May-27 11:00N 36°39' E 013°29'5 9.3
2017-May-27 10:30N 36°37' E 013°35'5 9.6
2017-May-27 10:00N 36°35' E 013°40'5 9.7
2017-May-27 09:30N 36°33' E 013°46'6 9.7
2017-May-27 08:55N 36°31' E 013°52'6 9.7
2017-May-27 08:21N 36°29' E 013°59'4 9.7
2017-May-27 07:59N 36°28' E 014°03'5 9.7
2017-May-27 07:30N 36°26' E 014°08'5 9.7
2017-May-27 07:00N 36°24' E 014°14'5 9.7
2017-May-27 06:30N 36°22' E 014°19'5 9.6
2017-May-27 06:00N 36°20' E 014°25'5 9.7
2017-May-27 05:30N 36°20' E 014°31'6 9.7
2017-May-27 04:52N 36°19' E 014°39'  
2017-May-24 08:11N 39°46' E 025°46'3 9.7
2017-May-24 07:54N 39°48' E 025°47'5 9.9
2017-May-24 07:23N 39°53' E 025°50'  
2017-May-20 12:41N 46°20' E 030°55'2 9.7
2017-May-20 12:28N 46°22' E 030°55'8 9.8
2017-May-20 11:41N 46°29' E 030°55'31 7.9
2017-May-20 07:45N 46°36' E 031°40'3 9.9
2017-May-20 07:28N 46°36' E 031°44'5 9.9
2017-May-20 07:00N 46°36' E 031°50'5 9.6
2017-May-20 06:31N 46°39' E 031°56'5 9.6
2017-May-20 06:01N 46°44' E 031°55'4 8.9
2017-May-20 05:31N 46°48' E 031°54'510.5
2017-May-20 05:01N 46°52' E 031°59'4 8.6
2017-May-20 04:31N 46°56' E 032°00'0 0.8
2017-May-20 03:59N 46°57' E 031°60'0 0.0
2017-May-20 03:29N 46°57' E 031°60'0 0.0
2017-May-20 02:59N 46°57' E 031°60'0 0.0
2017-May-20 02:29N 46°57' E 031°60'0 0.0
2017-May-20 01:59N 46°57' E 031°60'0 0.0
2017-May-20 01:29N 46°57' E 031°60'0 0.0
2017-May-20 00:59N 46°57' E 031°60'0 0.0
2017-May-20 00:29N 46°57' E 031°60'0 0.0
2017-May-19 23:59N 46°57' E 031°60'0 0.0
2017-May-19 23:29N 46°57' E 031°60'0 0.0
2017-May-19 22:59N 46°57' E 031°60'0 0.0
2017-May-19 22:29N 46°57' E 031°60'0 0.0
2017-May-19 21:59N 46°57' E 031°60'0 0.0
2017-May-19 21:29N 46°57' E 031°60'0 0.0
2017-May-19 20:59N 46°57' E 031°60'0 0.0
2017-May-19 20:29N 46°57' E 031°60'0 0.0
2017-May-19 19:59N 46°57' E 031°60'0 0.0
2017-May-19 19:29N 46°57' E 031°60'0 0.0
2017-May-19 18:59N 46°57' E 031°60'0 0.0
2017-May-19 18:29N 46°57' E 031°60'0 0.0
2017-May-19 17:59N 46°57' E 031°60'0 0.0
2017-May-19 17:29N 46°57' E 031°60'0 0.0
2017-May-19 16:59N 46°57' E 031°60'0 0.0
2017-May-19 16:29N 46°57' E 031°60'0 0.0
2017-May-19 15:59N 46°57' E 031°60'0 0.0
2017-May-19 15:29N 46°57' E 031°60'0 0.0
2017-May-19 14:59N 46°57' E 031°60'0 0.0
2017-May-19 13:59N 46°57' E 031°60'0 0.0
2017-May-19 13:29N 46°57' E 031°60'0 0.0
2017-May-19 12:50N 46°57' E 031°60'0 0.0
2017-May-19 12:29N 46°57' E 031°60'0 0.0
2017-May-19 11:59N 46°57' E 031°60'0 0.0
2017-May-19 11:29N 46°57' E 031°60'0 0.0
2017-May-19 10:59N 46°57' E 031°60'0 0.0
2017-May-19 10:29N 46°57' E 031°60'0 0.0
2017-May-19 09:59N 46°57' E 031°60'0 0.0
2017-May-19 09:29N 46°57' E 031°60'0 0.0
2017-May-19 08:59N 46°57' E 031°60'0 0.0
2017-May-19 08:29N 46°57' E 031°60'0 0.0
2017-May-19 07:59N 46°57' E 031°60'0 0.0
2017-May-19 07:29N 46°57' E 031°60'51 5.9
2017-May-18 22:49N 46°29' E 030°57'  

Dump ship's entire track history